Time;durP1;ratioP1;P1;durP2;ratioP2;P2;SDS_P1;SDS_P2;PMS_P1;PMS_P2;Temp;Humidity;BMP_temperature;BMP_pressure;BME280_temperature;BME280_humidity;BME280_pressure;Samples;Min_cycle;Max_cycle;Signal;HPM_P1;HPM_P2
2022/11/22 00:00:33;;;;;;;2.10;2.00;;;;;;;;;;5114335;28;20195;-81
2022/11/22 00:03:01;;;;;;;2.37;2.17;;;;;;;;;;5113887;28;20227;-81
2022/11/22 00:05:27;;;;;;;2.57;2.37;;;;;;;;;;5114120;28;20200;-81
2022/11/22 00:07:54;;;;;;;1.80;1.70;;;;;;;;;;5114227;28;20222;-81
2022/11/22 00:10:21;;;;;;;2.17;2.00;;;;;;;;;;5105406;28;20693;-80
2022/11/22 00:12:48;;;;;;;4.13;2.20;;;;;;;;;;5108549;28;20632;-81
2022/11/22 00:15:15;;;;;;;1.93;1.80;;;;;;;;;;5113937;28;20204;-81
2022/11/22 00:17:41;;;;;;;2.30;2.10;;;;;;;;;;5113883;28;20256;-81
2022/11/22 00:20:10;;;;;;;2.67;2.47;;;;;;;;;;5113708;28;20257;-80
2022/11/22 00:22:37;;;;;;;2.20;2.00;;;;;;;;;;5113776;28;20757;-80
2022/11/22 00:25:05;;;;;;;2.00;1.90;;;;;;;;;;5113626;28;20206;-81
2022/11/22 00:27:32;;;;;;;2.50;2.30;;;;;;;;;;5113801;28;20200;-81
2022/11/22 00:29:59;;;;;;;2.00;1.90;;;;;;;;;;5113119;28;20219;-80
2022/11/22 00:32:26;;;;;;;2.30;2.07;;;;;;;;;;5113822;28;20203;-81
2022/11/22 00:34:52;;;;;;;2.73;2.53;;;;;;;;;;5113235;28;20203;-82
2022/11/22 00:37:21;;;;;;;2.73;2.47;;;;;;;;;;5112761;28;20252;-81
2022/11/22 00:39:47;;;;;;;2.67;2.47;;;;;;;;;;5113278;28;20208;-81
2022/11/22 00:42:14;;;;;;;2.83;2.53;;;;;;;;;;5113495;28;20252;-81
2022/11/22 00:44:41;;;;;;;2.53;2.33;;;;;;;;;;5113363;28;20588;-81
2022/11/22 00:47:08;;;;;;;2.80;2.60;;;;;;;;;;5113393;28;20210;-81
2022/11/22 00:49:34;;;;;;;2.80;2.57;;;;;;;;;;5112891;28;20776;-81
2022/11/22 00:52:01;;;;;;;3.40;2.50;;;;;;;;;;5113687;28;20208;-80
2022/11/22 00:54:29;;;;;;;2.43;2.23;;;;;;;;;;5113311;28;20195;-80
2022/11/22 00:56:56;;;;;;;2.33;2.13;;;;;;;;;;5113416;28;20200;-81
2022/11/22 00:59:23;;;;;;;2.27;2.07;;;;;;;;;;5113136;28;20210;-80
2022/11/22 01:01:50;;;;;;;2.10;1.97;;;;;;;;;;5112693;28;20260;-81
2022/11/22 01:04:16;;;;;;;2.47;2.27;;;;;;;;;;5112903;28;20208;-81
2022/11/22 01:06:43;;;;;;;2.47;2.27;;;;;;;;;;5113234;28;20685;-81
2022/11/22 01:09:10;;;;;;;2.87;2.63;;;;;;;;;;5112890;28;20227;-80
2022/11/22 01:11:38;;;;;;;2.90;2.27;;;;;;;;;;5112665;28;20195;-79
2022/11/22 01:14:06;;;;;;;2.90;2.70;;;;;;;;;;5113106;28;20231;-80
2022/11/22 01:16:33;;;;;;;2.60;2.40;;;;;;;;;;5112238;28;20664;-81
2022/11/22 01:19:00;;;;;;;2.97;2.67;;;;;;;;;;5112976;28;20694;-81
2022/11/22 01:21:27;;;;;;;5.33;2.27;;;;;;;;;;5112513;28;20199;-81
2022/11/22 01:23:53;;;;;;;2.07;1.97;;;;;;;;;;5112459;28;20260;-81
2022/11/22 01:26:20;;;;;;;2.53;2.23;;;;;;;;;;5112666;28;20203;-81
2022/11/22 01:28:48;;;;;;;4.57;2.50;;;;;;;;;;5112385;28;20281;-81
2022/11/22 01:31:15;;;;;;;2.53;2.33;;;;;;;;;;5111993;28;20355;-81
2022/11/22 01:33:42;;;;;;;2.63;2.43;;;;;;;;;;5112455;28;20202;-81
2022/11/22 01:36:08;;;;;;;3.03;2.83;;;;;;;;;;5112197;28;20203;-81
2022/11/22 01:38:35;;;;;;;2.83;2.63;;;;;;;;;;5112488;28;20195;-81
2022/11/22 01:41:02;;;;;;;2.67;2.47;;;;;;;;;;5111868;28;20682;-81
2022/11/22 01:43:29;;;;;;;2.27;2.17;;;;;;;;;;5112153;28;20213;-81
2022/11/22 01:45:58;;;;;;;2.10;2.00;;;;;;;;;;5112002;28;20692;-81
2022/11/22 01:48:33;;;;;;;2.57;2.17;;;;;;;;;;5112273;28;20203;-81
2022/11/22 01:51:03;;;;;;;2.30;2.20;;;;;;;;;;5111828;28;20206;-81
2022/11/22 01:53:33;;;;;;;2.30;2.10;;;;;;;;;;5112359;28;20199;-81
2022/11/22 01:56:03;;;;;;;2.73;2.53;;;;;;;;;;5111729;28;20195;-82
2022/11/22 01:58:32;;;;;;;2.47;2.20;;;;;;;;;;5111953;28;20214;-81
2022/11/22 02:01:00;;;;;;;2.57;2.37;;;;;;;;;;5111573;28;20203;-81
2022/11/22 02:03:28;;;;;;;2.27;2.07;;;;;;;;;;5112103;28;20235;-82
2022/11/22 02:05:55;;;;;;;2.77;2.50;;;;;;;;;;5112355;28;20211;-81
2022/11/22 02:08:27;;;;;;;2.67;2.47;;;;;;;;;;5111370;28;20199;-80
2022/11/22 02:10:55;;;;;;;2.67;2.37;;;;;;;;;;5111501;28;20203;-81
2022/11/22 02:13:23;;;;;;;1.97;1.80;;;;;;;;;;5111535;28;20200;-81
2022/11/22 02:15:51;;;;;;;3.23;2.93;;;;;;;;;;5111689;28;20204;-81
2022/11/22 02:18:20;;;;;;;2.37;2.10;;;;;;;;;;5111773;28;20211;-81
2022/11/22 02:20:46;;;;;;;2.47;2.27;;;;;;;;;;5111212;28;20255;-81
2022/11/22 02:23:18;;;;;;;2.70;2.50;;;;;;;;;;5111334;28;20200;-81
2022/11/22 02:25:55;;;;;;;2.03;1.90;;;;;;;;;;5111469;28;20195;-81
2022/11/22 02:28:21;;;;;;;2.03;1.93;;;;;;;;;;5111559;28;20214;-81
2022/11/22 02:30:48;;;;;;;1.87;1.77;;;;;;;;;;5111472;28;21158;-80
2022/11/22 02:33:15;;;;;;;2.33;2.13;;;;;;;;;;5106648;28;20666;-81
2022/11/22 02:35:42;;;;;;;2.83;2.30;;;;;;;;;;5097650;28;20195;-81
2022/11/22 02:38:10;;;;;;;3.20;2.40;;;;;;;;;;5111461;28;20227;-81
2022/11/22 02:40:40;;;;;;;3.00;2.27;;;;;;;;;;5110991;28;20276;-80
2022/11/22 02:43:12;;;;;;;3.77;2.50;;;;;;;;;;5111572;28;20199;-81
2022/11/22 02:45:38;;;;;;;2.63;2.17;;;;;;;;;;5110869;28;20273;-80
2022/11/22 02:48:07;;;;;;;6.27;2.57;;;;;;;;;;5110925;28;20724;-81
2022/11/22 02:50:34;;;;;;;3.47;2.87;;;;;;;;;;5110806;28;20227;-81
2022/11/22 02:53:01;;;;;;;3.13;2.83;;;;;;;;;;5111356;28;20206;-81
2022/11/22 02:55:27;;;;;;;2.43;2.23;;;;;;;;;;5110915;28;20682;-80
2022/11/22 02:57:55;;;;;;;2.67;2.47;;;;;;;;;;5110819;28;20206;-80
2022/11/22 03:00:23;;;;;;;3.00;2.70;;;;;;;;;;5110116;28;20670;-81
2022/11/22 03:02:50;;;;;;;4.87;2.67;;;;;;;;;;5110810;28;20626;-80
2022/11/22 03:05:17;;;;;;;4.47;3.10;;;;;;;;;;5110846;28;20196;-80
2022/11/22 03:07:44;;;;;;;2.67;2.47;;;;;;;;;;5110715;28;20199;-80
2022/11/22 03:10:11;;;;;;;2.33;2.13;;;;;;;;;;5110538;28;20242;-80
2022/11/22 03:12:37;;;;;;;2.37;2.00;;;;;;;;;;5110854;28;20195;-81
2022/11/22 03:15:05;;;;;;;2.60;2.13;;;;;;;;;;5110685;28;20199;-81
2022/11/22 03:17:33;;;;;;;2.53;2.23;;;;;;;;;;5106400;28;20225;-80
2022/11/22 03:20:00;;;;;;;2.40;2.20;;;;;;;;;;5093523;28;20202;-80
2022/11/22 03:22:27;;;;;;;1.80;1.70;;;;;;;;;;5110625;28;20203;-79
2022/11/22 03:24:53;;;;;;;2.40;2.17;;;;;;;;;;5110356;28;20195;-79
2022/11/22 03:27:20;;;;;;;2.57;2.37;;;;;;;;;;5110380;28;20214;-79
2022/11/22 03:29:48;;;;;;;2.13;1.90;;;;;;;;;;5109847;28;20250;-79
2022/11/22 03:32:14;;;;;;;1.83;1.73;;;;;;;;;;5110435;28;20199;-79
2022/11/22 03:34:43;;;;;;;2.37;2.13;;;;;;;;;;5110306;28;20237;-79
2022/11/22 03:37:10;;;;;;;3.70;2.37;;;;;;;;;;5110183;28;20268;-79
2022/11/22 03:39:36;;;;;;;2.50;2.30;;;;;;;;;;5110411;28;20204;-79
2022/11/22 03:42:03;;;;;;;3.70;2.73;;;;;;;;;;5110582;28;20214;-80
2022/11/22 03:44:30;;;;;;;2.43;2.23;;;;;;;;;;5109866;28;20203;-79
2022/11/22 03:46:57;;;;;;;2.30;2.20;;;;;;;;;;5110135;28;20207;-78
2022/11/22 03:49:23;;;;;;;2.17;1.93;;;;;;;;;;5110031;28;20215;-78
2022/11/22 03:51:52;;;;;;;2.37;2.17;;;;;;;;;;5110274;28;20208;-78
2022/11/22 03:54:18;;;;;;;2.20;2.03;;;;;;;;;;5110442;28;20199;-79
2022/11/22 03:56:45;;;;;;;2.43;2.00;;;;;;;;;;5110015;28;20199;-79
2022/11/22 03:59:12;;;;;;;2.70;2.50;;;;;;;;;;5109966;28;20723;-84
2022/11/22 04:01:39;;;;;;;2.60;2.40;;;;;;;;;;5110217;28;20192;-80
2022/11/22 04:04:05;;;;;;;13.63;8.77;;;;;;;;;;5109807;28;20248;-80
2022/11/22 04:06:33;;;;;;;14.93;10.07;;;;;;;;;;5110326;28;20218;-80
2022/11/22 04:09:02;;;;;;;8.40;6.63;;;;;;;;;;5110486;28;20200;-80
2022/11/22 04:11:29;;;;;;;2.90;2.57;;;;;;;;;;5109965;28;20666;-80
2022/11/22 04:16:40;;;;;;;4.80;1.80;;;;;;;;;;5113384;28;20211;-79
2022/11/22 04:19:07;;;;;;;2.43;2.23;;;;;;;;;;5113889;28;20199;-80
2022/11/22 04:21:32;;;;;;;2.30;2.10;;;;;;;;;;5113437;28;20629;-79
2022/11/22 04:26:45;;;;;;;9.33;5.73;;;;;;;;;;5113174;28;20206;-80
2022/11/22 04:29:12;;;;;;;19.27;10.70;;;;;;;;;;5113254;28;20195;-80
2022/11/22 04:34:23;;;;;;;5.40;4.40;;;;;;;;;;5113717;28;20328;-79
2022/11/22 04:36:49;;;;;;;6.50;4.87;;;;;;;;;;5113066;28;20276;-79
2022/11/22 04:39:18;;;;;;;2.87;2.60;;;;;;;;;;5112760;28;20206;-80
2022/11/22 04:41:44;;;;;;;3.07;2.77;;;;;;;;;;5112575;28;20252;-80
2022/11/22 04:46:57;;;;;;;2.63;2.43;;;;;;;;;;5111979;28;20210;-80
2022/11/22 04:49:24;;;;;;;18.07;10.90;;;;;;;;;;5111438;28;20331;-80
2022/11/22 04:54:36;;;;;;;2.90;2.57;;;;;;;;;;5106460;28;20210;-80
2022/11/22 04:57:03;;;;;;;2.63;2.43;;;;;;;;;;5111020;28;20196;-79
2022/11/22 04:59:30;;;;;;;2.10;2.00;;;;;;;;;;5111548;28;20200;-80
2022/11/22 05:01:57;;;;;;;3.20;2.90;;;;;;;;;;5111663;28;20220;-78
2022/11/22 05:04:24;;;;;;;3.37;3.07;;;;;;;;;;5110912;28;20199;-79
2022/11/22 05:06:51;;;;;;;3.13;2.43;;;;;;;;;;5092936;28;20212;-79
2022/11/22 05:09:18;;;;;;;2.83;2.33;;;;;;;;;;5110915;28;20729;-79
2022/11/22 05:11:47;;;;;;;4.23;2.60;;;;;;;;;;5108003;28;20210;-79
2022/11/22 05:14:14;;;;;;;5.40;2.33;;;;;;;;;;5093477;28;20780;-79
2022/11/22 05:16:41;;;;;;;2.97;2.37;;;;;;;;;;5111444;28;20203;-80
2022/11/22 05:19:08;;;;;;;4.67;4.27;;;;;;;;;;5106111;28;20199;-78
2022/11/22 05:21:36;;;;;;;5.77;5.27;;;;;;;;;;5110004;28;20199;-78
2022/11/22 05:24:02;;;;;;;4.17;3.77;;;;;;;;;;5092248;28;20214;-78
2022/11/22 05:26:30;;;;;;;7.80;7.00;;;;;;;;;;5110811;28;20282;-78
2022/11/22 05:29:03;;;;;;;11.00;7.77;;;;;;;;;;5111120;28;20203;-78
2022/11/22 05:31:30;;;;;;;8.60;6.83;;;;;;;;;;5091889;28;20598;-78
2022/11/22 05:33:57;;;;;;;3.40;2.60;;;;;;;;;;5092149;28;20717;-78
2022/11/22 05:36:24;;;;;;;4.33;2.40;;;;;;;;;;5110348;28;20203;-78
2022/11/22 05:38:52;;;;;;;2.90;2.20;;;;;;;;;;5107200;28;20678;-78
2022/11/22 05:41:19;;;;;;;4.47;3.93;;;;;;;;;;5110933;28;20264;-78
2022/11/22 05:43:46;;;;;;;8.73;4.40;;;;;;;;;;5110686;28;20195;-78
2022/11/22 05:46:16;;;;;;;7.70;4.37;;;;;;;;;;5109455;28;20192;-78
2022/11/22 05:48:44;;;;;;;7.40;4.87;;;;;;;;;;5110319;28;20207;-78
2022/11/22 05:51:13;;;;;;;4.77;4.00;;;;;;;;;;5110206;28;20228;-78
2022/11/22 05:53:41;;;;;;;3.53;3.20;;;;;;;;;;5110413;28;20199;-78
2022/11/22 05:56:08;;;;;;;73.97;41.67;;;;;;;;;;5106587;28;20207;-78
2022/11/22 05:58:35;;;;;;;18.00;12.03;;;;;;;;;;5106222;28;20203;-78
2022/11/22 06:01:03;;;;;;;12.10;7.50;;;;;;;;;;5107406;28;20199;-78
2022/11/22 06:03:32;;;;;;;4.77;4.40;;;;;;;;;;5111498;28;20219;-78
2022/11/22 06:05:58;;;;;;;4.17;3.77;;;;;;;;;;5109694;28;20200;-79
2022/11/22 06:08:25;;;;;;;8.00;4.40;;;;;;;;;;5109108;28;20203;-78
2022/11/22 06:10:52;;;;;;;3.17;2.90;;;;;;;;;;5110565;28;20227;-78
2022/11/22 06:13:19;;;;;;;3.70;3.40;;;;;;;;;;5110150;28;20203;-79
2022/11/22 06:15:48;;;;;;;3.03;2.60;;;;;;;;;;5109933;28;20203;-78
2022/11/22 06:18:14;;;;;;;3.53;3.23;;;;;;;;;;5109014;28;20199;-78
2022/11/22 06:20:43;;;;;;;2.73;2.53;;;;;;;;;;5110146;28;20204;-78
2022/11/22 06:23:09;;;;;;;3.03;2.80;;;;;;;;;;5107627;28;20196;-78
2022/11/22 06:25:36;;;;;;;2.63;2.43;;;;;;;;;;5101157;28;20201;-79
2022/11/22 06:28:03;;;;;;;2.87;2.63;;;;;;;;;;5102130;28;20203;-83
2022/11/22 06:30:30;;;;;;;3.57;3.20;;;;;;;;;;5095691;28;20230;-79
2022/11/22 06:32:57;;;;;;;3.70;3.13;;;;;;;;;;5104175;28;20203;-78
2022/11/22 06:35:24;;;;;;;3.30;3.00;;;;;;;;;;5110042;28;20294;-79
2022/11/22 06:37:52;;;;;;;4.50;4.10;;;;;;;;;;5104310;28;20210;-77
2022/11/22 06:40:19;;;;;;;4.10;3.70;;;;;;;;;;5111272;28;20204;-78
2022/11/22 06:42:46;;;;;;;5.17;4.67;;;;;;;;;;5111319;28;20256;-79
2022/11/22 06:45:12;;;;;;;4.23;3.50;;;;;;;;;;5104801;28;20196;-77
2022/11/22 06:47:39;;;;;;;3.27;3.00;;;;;;;;;;5108856;28;20248;-78
2022/11/22 06:50:07;;;;;;;3.57;3.17;;;;;;;;;;5110521;28;20723;-77
2022/11/22 06:52:34;;;;;;;2.57;2.37;;;;;;;;;;5111469;28;20211;-77
2022/11/22 06:55:02;;;;;;;3.03;2.73;;;;;;;;;;5110502;28;20206;-78
2022/11/22 06:57:29;;;;;;;2.83;2.63;;;;;;;;;;5110592;28;20195;-77
2022/11/22 06:59:55;;;;;;;3.40;3.10;;;;;;;;;;5111098;28;20199;-79
2022/11/22 07:02:22;;;;;;;2.83;2.63;;;;;;;;;;5104006;28;20232;-79
2022/11/22 07:04:49;;;;;;;3.03;2.73;;;;;;;;;;5105583;28;20230;-78
2022/11/22 07:07:16;;;;;;;2.93;2.73;;;;;;;;;;5103199;28;20206;-78
2022/11/22 07:09:43;;;;;;;4.17;3.77;;;;;;;;;;5110646;28;20203;-78
2022/11/22 07:12:11;;;;;;;5.73;3.73;;;;;;;;;;5110767;28;20204;-77
2022/11/22 07:14:38;;;;;;;11.77;9.27;;;;;;;;;;5110300;28;20195;-77
2022/11/22 07:17:04;;;;;;;8.13;5.50;;;;;;;;;;5110068;28;20210;-78
2022/11/22 07:19:32;;;;;;;4.97;4.40;;;;;;;;;;5110647;28;20202;-77
2022/11/22 07:21:58;;;;;;;3.50;3.20;;;;;;;;;;5110726;28;20199;-78
2022/11/22 07:24:25;;;;;;;4.60;4.27;;;;;;;;;;5110332;28;20191;-77
2022/11/22 07:26:52;;;;;;;3.97;3.37;;;;;;;;;;5110770;28;20199;-77
2022/11/22 07:29:20;;;;;;;4.70;3.67;;;;;;;;;;5110224;28;20199;-77
2022/11/22 07:31:47;;;;;;;4.30;3.90;;;;;;;;;;5109976;28;20223;-77
2022/11/22 07:34:14;;;;;;;2.50;2.30;;;;;;;;;;5110656;28;20191;-79
2022/11/22 07:36:41;;;;;;;3.13;2.90;;;;;;;;;;5110318;28;20200;-79
2022/11/22 07:39:08;;;;;;;4.20;2.77;;;;;;;;;;5105231;28;20216;-79
2022/11/22 07:41:34;;;;;;;2.33;2.13;;;;;;;;;;5106627;28;20199;-78
2022/11/22 07:44:01;;;;;;;3.17;2.90;;;;;;;;;;5101618;28;20196;-77
2022/11/22 07:46:31;;;;;;;3.20;2.37;;;;;;;;;;5102565;28;20207;-77
2022/11/22 07:48:59;;;;;;;7.60;4.60;;;;;;;;;;5113071;28;20206;-78
2022/11/22 07:51:26;;;;;;;3.27;2.70;;;;;;;;;;5114163;28;20227;-79
2022/11/22 07:53:52;;;;;;;3.07;2.77;;;;;;;;;;5112979;28;20211;-79
2022/11/22 07:56:19;;;;;;;4.00;2.87;;;;;;;;;;5113578;28;20203;-78
2022/11/22 07:58:47;;;;;;;3.00;2.80;;;;;;;;;;5113312;28;20211;-79
2022/11/22 08:01:15;;;;;;;3.77;2.67;;;;;;;;;;5113331;28;20196;-78
2022/11/22 08:03:43;;;;;;;2.87;2.60;;;;;;;;;;5105219;28;20236;-78
2022/11/22 08:06:11;;;;;;;2.47;2.23;;;;;;;;;;5109787;28;20192;-79
2022/11/22 08:08:39;;;;;;;2.50;2.30;;;;;;;;;;5114279;28;20191;-78
2022/11/22 08:11:06;;;;;;;3.10;2.60;;;;;;;;;;5112584;28;20223;-79
2022/11/22 08:13:33;;;;;;;3.13;2.57;;;;;;;;;;5103893;28;20204;-79
2022/11/22 08:16:05;;;;;;;3.80;2.70;;;;;;;;;;5106354;28;20209;-78
2022/11/22 08:18:32;;;;;;;3.57;3.17;;;;;;;;;;5104712;28;20589;-79
2022/11/22 08:21:04;;;;;;;3.47;3.10;;;;;;;;;;5109870;28;20204;-78
2022/11/22 08:23:31;;;;;;;2.60;2.40;;;;;;;;;;5105678;28;20197;-78
2022/11/22 08:25:58;;;;;;;2.87;2.60;;;;;;;;;;5109115;28;20231;-78
2022/11/22 08:28:25;;;;;;;3.03;2.83;;;;;;;;;;5113544;28;20204;-79
2022/11/22 08:30:52;;;;;;;2.77;2.43;;;;;;;;;;5113514;28;20231;-78
2022/11/22 08:33:19;;;;;;;3.27;2.80;;;;;;;;;;5113549;28;20208;-79
2022/11/22 08:35:49;;;;;;;4.60;3.67;;;;;;;;;;5113281;28;20202;-78
2022/11/22 08:38:18;;;;;;;4.23;3.47;;;;;;;;;;5113433;28;20199;-78
2022/11/22 08:40:44;;;;;;;3.60;3.30;;;;;;;;;;5113087;28;20211;-79
2022/11/22 08:43:11;;;;;;;3.20;2.90;;;;;;;;;;5113181;28;20237;-79
2022/11/22 08:45:38;;;;;;;4.20;3.27;;;;;;;;;;5113410;28;20204;-78
2022/11/22 08:48:05;;;;;;;4.90;3.90;;;;;;;;;;5109685;28;20231;-79
2022/11/22 08:50:32;;;;;;;3.43;3.10;;;;;;;;;;5107364;28;20215;-78
2022/11/22 08:53:00;;;;;;;2.70;2.50;;;;;;;;;;5112727;28;20564;-78
2022/11/22 08:55:28;;;;;;;3.07;2.70;;;;;;;;;;5107837;28;20195;-78
2022/11/22 08:57:58;;;;;;;4.40;3.03;;;;;;;;;;5108414;28;20585;-77
2022/11/22 09:00:25;;;;;;;3.00;2.53;;;;;;;;;;5106439;28;20200;-76
2022/11/22 09:02:52;;;;;;;4.10;2.87;;;;;;;;;;5105667;28;20232;-78
2022/11/22 09:05:19;;;;;;;2.93;2.53;;;;;;;;;;5104073;28;20205;-79
2022/11/22 09:07:45;;;;;;;3.17;2.87;;;;;;;;;;5103549;28;20219;-78
2022/11/22 09:10:13;;;;;;;4.07;3.07;;;;;;;;;;5113685;28;20574;-80
2022/11/22 09:12:44;;;;;;;3.27;2.60;;;;;;;;;;5111882;28;20722;-79
2022/11/22 09:15:11;;;;;;;4.10;3.10;;;;;;;;;;5112644;28;20199;-80
2022/11/22 09:17:38;;;;;;;3.50;3.00;;;;;;;;;;5109850;28;20196;-80
2022/11/22 09:20:06;;;;;;;3.87;3.47;;;;;;;;;;5105845;28;20208;-80
2022/11/22 09:22:33;;;;;;;3.67;2.87;;;;;;;;;;5098263;28;20579;-81
2022/11/22 09:25:00;;;;;;;4.33;3.23;;;;;;;;;;5111517;28;20210;-81
2022/11/22 09:27:27;;;;;;;3.87;3.43;;;;;;;;;;5112456;28;20290;-81
2022/11/22 09:29:55;;;;;;;5.27;3.53;;;;;;;;;;5112290;28;20202;-81
2022/11/22 09:32:22;;;;;;;3.20;2.90;;;;;;;;;;5111973;28;20223;-81
2022/11/22 09:34:49;;;;;;;3.10;2.80;;;;;;;;;;5111944;28;20305;-79
2022/11/22 09:37:18;;;;;;;5.93;3.23;;;;;;;;;;5112156;28;20204;-80
2022/11/22 09:39:45;;;;;;;8.33;3.00;;;;;;;;;;5111802;28;20686;-80
2022/11/22 09:42:49;;;;;;;4.13;3.53;;;;;;;;;;5112127;28;20200;-80
2022/11/22 09:45:47;;;;;;;3.67;3.33;;;;;;;;;;5083872;28;20216;-81
2022/11/22 09:48:25;;;;;;;3.30;2.77;;;;;;;;;;5112137;28;20674;-81
2022/11/22 09:50:58;;;;;;;2.97;2.77;;;;;;;;;;5111908;28;20223;-80
2022/11/22 09:53:29;;;;;;;3.30;3.00;;;;;;;;;;5111589;28;20199;-81
2022/11/22 09:55:57;;;;;;;2.87;2.43;;;;;;;;;;5111868;28;20203;-81
2022/11/22 09:58:29;;;;;;;2.60;2.40;;;;;;;;;;5111504;28;20204;-80
2022/11/22 10:01:01;;;;;;;2.50;2.30;;;;;;;;;;5111680;28;20210;-80
2022/11/22 10:03:32;;;;;;;4.13;2.30;;;;;;;;;;5112023;28;20619;-81
2022/11/22 10:06:03;;;;;;;2.10;1.90;;;;;;;;;;5111448;28;20200;-81
2022/11/22 10:08:35;;;;;;;3.10;2.27;;;;;;;;;;5111965;28;20213;-81
2022/11/22 10:11:04;;;;;;;3.33;2.20;;;;;;;;;;5110515;28;20252;-81
2022/11/22 10:13:34;;;;;;;2.77;2.57;;;;;;;;;;5104921;28;20207;-81
2022/11/22 10:16:07;;;;;;;3.40;2.30;;;;;;;;;;5102108;28;20199;-81
2022/11/22 10:18:38;;;;;;;2.30;2.10;;;;;;;;;;5110458;28;20213;-80
2022/11/22 10:21:07;;;;;;;2.50;2.30;;;;;;;;;;5110465;28;20207;-81
2022/11/22 10:23:34;;;;;;;2.63;2.43;;;;;;;;;;5111294;28;20199;-81
2022/11/22 10:26:04;;;;;;;3.57;3.10;;;;;;;;;;5111271;28;20206;-80
2022/11/22 10:28:35;;;;;;;3.40;2.97;;;;;;;;;;5103358;28;20196;-81
2022/11/22 10:31:07;;;;;;;3.10;2.70;;;;;;;;;;5110617;28;20243;-84
2022/11/22 10:33:37;;;;;;;2.43;2.23;;;;;;;;;;5110105;28;20208;-83
2022/11/22 10:36:16;;;;;;;4.90;2.20;;;;;;;;;;5111326;28;20210;-83
2022/11/22 10:39:03;;;;;;;4.70;2.93;;;;;;;;;;5109489;28;20203;-84
2022/11/22 10:41:41;;;;;;;3.77;3.40;;;;;;;;;;5110163;28;20199;-84
2022/11/22 10:44:19;;;;;;;3.13;2.90;;;;;;;;;;5111158;28;20199;-84
2022/11/22 10:46:56;;;;;;;5.53;3.80;;;;;;;;;;5111266;28;20275;-84
2022/11/22 10:49:30;;;;;;;2.80;2.40;;;;;;;;;;5110802;28;20199;-83
2022/11/22 10:52:00;;;;;;;4.07;3.77;;;;;;;;;;5102599;28;20721;-84
2022/11/22 10:54:32;;;;;;;3.97;3.33;;;;;;;;;;5095656;28;20217;-84
2022/11/22 10:57:04;;;;;;;4.07;3.70;;;;;;;;;;5101036;28;20219;-85
2022/11/22 10:59:49;;;;;;;3.53;3.10;;;;;;;;;;5109990;28;20207;-85
2022/11/22 11:02:32;;;;;;;2.63;2.43;;;;;;;;;;5110338;28;20238;-84
2022/11/22 11:04:59;;;;;;;3.83;3.50;;;;;;;;;;5108826;28;20195;-85
2022/11/22 11:07:27;;;;;;;3.20;2.90;;;;;;;;;;5111067;28;20199;-84
2022/11/22 11:09:55;;;;;;;3.30;2.87;;;;;;;;;;5110371;28;20199;-85
2022/11/22 11:12:25;;;;;;;4.07;2.93;;;;;;;;;;5103899;28;20224;-85
2022/11/22 11:14:55;;;;;;;2.50;2.30;;;;;;;;;;5098702;28;20204;-85
2022/11/22 11:17:26;;;;;;;3.00;2.40;;;;;;;;;;5105599;28;20563;-84
2022/11/22 11:19:55;;;;;;;2.47;2.27;;;;;;;;;;5110352;28;20215;-85
2022/11/22 11:22:23;;;;;;;3.10;2.80;;;;;;;;;;5104288;28;20202;-85
2022/11/22 11:24:50;;;;;;;2.80;2.60;;;;;;;;;;5111115;28;20222;-84
2022/11/22 11:27:19;;;;;;;3.33;2.60;;;;;;;;;;5096168;28;20199;-85
2022/11/22 11:29:47;;;;;;;2.57;2.37;;;;;;;;;;5110457;28;20217;-85
2022/11/22 11:32:15;;;;;;;2.60;2.40;;;;;;;;;;5107804;28;20228;-85
2022/11/22 11:34:50;;;;;;;2.67;2.43;;;;;;;;;;5099218;28;20211;-85
2022/11/22 11:37:28;;;;;;;2.90;2.70;;;;;;;;;;5104715;28;20204;-85
2022/11/22 11:39:55;;;;;;;2.53;2.33;;;;;;;;;;5094798;28;20199;-84
2022/11/22 11:42:25;;;;;;;2.80;2.50;;;;;;;;;;5107877;28;20203;-85
2022/11/22 11:44:52;;;;;;;2.13;1.87;;;;;;;;;;5110697;28;20200;-85
2022/11/22 11:47:20;;;;;;;2.47;2.27;;;;;;;;;;5110466;28;20693;-85
2022/11/22 11:49:52;;;;;;;3.33;2.87;;;;;;;;;;5110760;28;20207;-84
2022/11/22 11:52:20;;;;;;;5.27;4.10;;;;;;;;;;5092187;28;20240;-84
2022/11/22 11:54:48;;;;;;;4.40;3.90;;;;;;;;;;5110682;28;20674;-85
2022/11/22 11:57:17;;;;;;;3.87;3.57;;;;;;;;;;5110593;28;20212;-84
2022/11/22 11:59:46;;;;;;;3.77;3.33;;;;;;;;;;5110224;28;20207;-85
2022/11/22 12:02:15;;;;;;;10.47;8.60;;;;;;;;;;5110999;28;20305;-86
2022/11/22 12:04:48;;;;;;;4.87;3.30;;;;;;;;;;5110027;28;20697;-85
2022/11/22 12:07:21;;;;;;;2.60;2.40;;;;;;;;;;5111091;28;20200;-85
2022/11/22 12:09:49;;;;;;;3.23;2.60;;;;;;;;;;5110162;28;20215;-84
2022/11/22 12:12:33;;;;;;;7.40;5.43;;;;;;;;;;5110489;28;20223;-85
2022/11/22 12:15:04;;;;;;;4.03;3.23;;;;;;;;;;5102728;28;20313;-84
2022/11/22 12:17:36;;;;;;;8.40;5.27;;;;;;;;;;5102453;28;20198;-85
2022/11/22 12:20:05;;;;;;;10.57;7.20;;;;;;;;;;5110249;28;20210;-85
2022/11/22 12:22:50;;;;;;;10.33;5.33;;;;;;;;;;5103180;28;20204;-85
2022/11/22 12:25:22;;;;;;;3.33;2.77;;;;;;;;;;5093987;28;20204;-85
2022/11/22 12:27:49;;;;;;;3.40;3.10;;;;;;;;;;5110494;28;20204;-84
2022/11/22 12:30:17;;;;;;;2.40;2.20;;;;;;;;;;5090358;28;20200;-84
2022/11/22 12:32:46;;;;;;;2.43;2.20;;;;;;;;;;5110584;28;20706;-85
2022/11/22 12:35:15;;;;;;;2.37;2.17;;;;;;;;;;5113853;28;20199;-83
2022/11/22 12:37:46;;;;;;;5.27;4.77;;;;;;;;;;5110443;28;20200;-85
2022/11/22 12:40:16;;;;;;;4.93;3.07;;;;;;;;;;5095437;28;20207;-79
2022/11/22 12:42:47;;;;;;;3.33;3.03;;;;;;;;;;5113525;28;20200;-79
2022/11/22 12:45:24;;;;;;;11.47;5.53;;;;;;;;;;5113155;28;20203;-80
2022/11/22 12:47:52;;;;;;;3.17;2.87;;;;;;;;;;5113856;28;20210;-81
2022/11/22 12:50:26;;;;;;;5.73;4.83;;;;;;;;;;5112626;28;20206;-81
2022/11/22 12:53:01;;;;;;;6.03;5.27;;;;;;;;;;5113566;28;20261;-81
2022/11/22 12:55:31;;;;;;;9.40;7.10;;;;;;;;;;5112815;28;20198;-81
2022/11/22 12:58:03;;;;;;;5.23;4.73;;;;;;;;;;5113393;28;20571;-80
2022/11/22 13:00:34;;;;;;;6.53;5.40;;;;;;;;;;5112771;28;20207;-81
2022/11/22 13:03:03;;;;;;;7.90;6.47;;;;;;;;;;5113144;28;20231;-81
2022/11/22 13:05:31;;;;;;;4.80;3.37;;;;;;;;;;5113242;28;20256;-81
2022/11/22 13:08:08;;;;;;;3.47;3.17;;;;;;;;;;5113066;28;20226;-81
2022/11/22 13:10:38;;;;;;;5.03;4.00;;;;;;;;;;5112905;28;20207;-81
2022/11/22 13:13:10;;;;;;;4.07;3.47;;;;;;;;;;5112793;28;20227;-81
2022/11/22 13:15:39;;;;;;;4.10;2.73;;;;;;;;;;5112204;28;20206;-81
2022/11/22 13:18:08;;;;;;;3.47;3.17;;;;;;;;;;5112829;28;20207;-80
2022/11/22 13:20:37;;;;;;;59.17;36.90;;;;;;;;;;5112848;28;20202;-81
2022/11/22 13:23:23;;;;;;;58.57;35.00;;;;;;;;;;5112633;28;20203;-83
2022/11/22 13:25:59;;;;;;;10.63;9.40;;;;;;;;;;5102920;28;20214;-84
2022/11/22 13:28:30;;;;;;;7.87;6.50;;;;;;;;;;5097862;28;20195;-83
2022/11/22 13:31:06;;;;;;;3.70;3.40;;;;;;;;;;5112597;28;20279;-83
2022/11/22 13:33:34;;;;;;;3.20;2.97;;;;;;;;;;5112695;28;20234;-83
2022/11/22 13:36:23;;;;;;;4.13;2.93;;;;;;;;;;5111930;28;20204;-83
2022/11/22 13:38:53;;;;;;;3.07;2.83;;;;;;;;;;5106543;28;20207;-83
2022/11/22 13:41:28;;;;;;;3.23;2.93;;;;;;;;;;5094091;28;20210;-83
2022/11/22 13:43:56;;;;;;;3.53;3.23;;;;;;;;;;5101559;28;20592;-83
2022/11/22 13:46:54;;;;;;;4.30;2.97;;;;;;;;;;5111888;28;20210;-83
2022/11/22 13:49:35;;;;;;;5.83;2.90;;;;;;;;;;5100685;28;20203;-83
2022/11/22 13:52:04;;;;;;;2.90;2.70;;;;;;;;;;5112374;28;20230;-83
2022/11/22 13:55:02;;;;;;;3.60;3.30;;;;;;;;;;5111784;28;20203;-83
2022/11/22 13:57:32;;;;;;;3.80;3.43;;;;;;;;;;5110591;28;20233;-83
2022/11/22 14:00:45;;;;;;;3.83;2.93;;;;;;;;;;5112213;28;20203;-83
2022/11/22 14:03:23;;;;;;;4.87;4.37;;;;;;;;;;5092152;28;20227;-82
2022/11/22 14:05:51;;;;;;;2.73;2.53;;;;;;;;;;5111747;28;20297;-83
2022/11/22 14:08:28;;;;;;;2.83;2.63;;;;;;;;;;5112216;28;20204;-83
2022/11/22 14:11:08;;;;;;;3.20;2.87;;;;;;;;;;5110518;28;20590;-83
2022/11/22 14:13:47;;;;;;;5.30;4.23;;;;;;;;;;5107444;28;20219;-83
2022/11/22 14:16:26;;;;;;;4.07;3.67;;;;;;;;;;5110859;28;20203;-83
2022/11/22 14:19:11;;;;;;;9.63;8.10;;;;;;;;;;5100509;28;20195;-82
2022/11/22 14:21:46;;;;;;;7.13;5.10;;;;;;;;;;5108916;28;20722;-83
2022/11/22 14:24:23;;;;;;;10.83;8.13;;;;;;;;;;5111583;28;20591;-82
2022/11/22 14:26:57;;;;;;;4.00;3.60;;;;;;;;;;5111990;28;20207;-83
2022/11/22 14:30:00;;;;;;;2.63;2.47;;;;;;;;;;5100891;28;20198;-80
2022/11/22 14:32:40;;;;;;;41.03;24.83;;;;;;;;;;5095753;28;20222;-81
2022/11/22 14:35:25;;;;;;;21.80;12.13;;;;;;;;;;5111374;28;20202;-80
2022/11/22 14:38:18;;;;;;;5.83;3.13;;;;;;;;;;5111230;28;20717;-81
2022/11/22 14:40:46;;;;;;;13.10;10.33;;;;;;;;;;5111182;28;20203;-80
2022/11/22 14:43:27;;;;;;;12.67;9.83;;;;;;;;;;5108801;28;20196;-80
2022/11/22 14:45:58;;;;;;;6.43;5.83;;;;;;;;;;5110612;28;20636;-80
2022/11/22 14:48:27;;;;;;;8.03;6.83;;;;;;;;;;5111177;28;20223;-80
2022/11/22 14:50:59;;;;;;;7.70;5.97;;;;;;;;;;5111084;28;20256;-80
2022/11/22 14:53:32;;;;;;;6.70;4.87;;;;;;;;;;5094519;28;20239;-85
2022/11/22 14:56:05;;;;;;;2.80;2.60;;;;;;;;;;5096662;28;20199;-85
2022/11/22 14:58:37;;;;;;;3.27;2.43;;;;;;;;;;5111222;28;20227;-85
2022/11/22 15:01:48;;;;;;;4.80;2.77;;;;;;;;;;5110755;28;20669;-85
2022/11/22 15:04:54;;;;;;;8.67;6.07;;;;;;;;;;5066283;28;20207;-84
2022/11/22 15:07:42;;;;;;;13.63;7.53;;;;;;;;;;5111166;28;20199;-84
2022/11/22 15:10:41;;;;;;;8.33;5.43;;;;;;;;;;5110530;28;20206;-85